Time;durP1;ratioP1;P1;durP2;ratioP2;P2;SDS_P1;SDS_P2;PMS_P1;PMS_P2;Temp;Humidity;BMP_temperature;BMP_pressure;BME280_temperature;BME280_humidity;BME280_pressure;Samples;Min_cycle;Max_cycle;Signal;HPM_P1;HPM_P2
2023/10/13 00:00:58;;;;;;;8.33;3.70;;;19.20;6.00;;;;;;4955581;28;20509;-64
2023/10/13 00:03:31;;;;;;;8.40;4.20;;;19.20;6.00;;;;;;4971575;28;20468;-64
2023/10/13 00:06:02;;;;;;;9.83;4.17;;;19.10;6.10;;;;;;4970163;28;20536;-64
2023/10/13 00:08:29;;;;;;;11.13;5.03;;;19.10;6.20;;;;;;4971351;28;20461;-64
2023/10/13 00:10:59;;;;;;;9.40;3.93;;;19.00;6.20;;;;;;4968680;28;20947;-64
2023/10/13 00:13:27;;;;;;;10.07;4.37;;;19.00;6.40;;;;;;4966451;28;20458;-64
2023/10/13 00:15:58;;;;;;;12.43;4.80;;;19.00;6.40;;;;;;4967069;28;20496;-64
2023/10/13 00:18:32;;;;;;;11.93;4.23;;;18.90;6.60;;;;;;4970007;28;20461;-64
2023/10/13 00:20:59;;;;;;;8.07;4.70;;;18.90;6.70;;;;;;4965792;28;20465;-65
2023/10/13 00:23:27;;;;;;;11.53;4.27;;;18.90;6.80;;;;;;4970509;28;20947;-64
2023/10/13 00:25:58;;;;;;;10.00;4.00;;;18.90;6.80;;;;;;4963535;28;20486;-64
2023/10/13 00:28:26;;;;;;;8.33;4.23;;;18.90;6.80;;;;;;4966281;28;20496;-64
2023/10/13 00:31:04;;;;;;;11.20;4.20;;;18.90;6.80;;;;;;4967500;28;20483;-64
2023/10/13 00:33:32;;;;;;;14.70;4.30;;;18.90;6.80;;;;;;4968032;28;20457;-64
2023/10/13 00:36:00;;;;;;;9.20;3.73;;;18.90;6.80;;;;;;4968853;28;20990;-64
2023/10/13 00:38:27;;;;;;;8.20;4.37;;;18.90;6.80;;;;;;4969478;28;20461;-64
2023/10/13 00:40:54;;;;;;;11.73;3.80;;;18.90;6.80;;;;;;4969508;28;20473;-64
2023/10/13 00:43:34;;;;;;;9.63;4.17;;;18.90;6.80;;;;;;4970017;28;20829;-64
2023/10/13 00:46:07;;;;;;;7.17;3.60;;;18.90;6.80;;;;;;4963881;28;20464;-64
2023/10/13 00:48:51;;;;;;;9.93;4.13;;;18.90;6.80;;;;;;4961286;28;21054;-64
2023/10/13 00:51:32;;;;;;;9.00;4.33;;;18.90;6.80;;;;;;4970398;28;20499;-65
2023/10/13 00:53:59;;;;;;;8.50;4.20;;;18.90;6.90;;;;;;4965113;28;20477;-64
2023/10/13 00:56:27;;;;;;;11.33;4.30;;;18.80;6.80;;;;;;4968613;28;20466;-64
2023/10/13 00:58:54;;;;;;;9.40;4.23;;;18.80;6.80;;;;;;4969480;28;20458;-64
2023/10/13 01:01:29;;;;;;;8.63;3.90;;;18.80;6.80;;;;;;4968760;28;20477;-64
2023/10/13 01:03:59;;;;;;;11.07;4.13;;;18.80;6.70;;;;;;4968502;28;20493;-64
2023/10/13 01:06:26;;;;;;;9.67;4.77;;;18.70;6.70;;;;;;4968657;28;20489;-64
2023/10/13 01:08:58;;;;;;;8.80;4.13;;;18.70;6.80;;;;;;4970392;28;20469;-64
2023/10/13 01:11:24;;;;;;;9.70;3.90;;;18.60;6.70;;;;;;4968944;28;20473;-64
2023/10/13 01:13:51;;;;;;;10.90;3.80;;;18.60;6.60;;;;;;4967038;28;20978;-64
2023/10/13 01:16:19;;;;;;;9.90;4.47;;;18.60;6.60;;;;;;4969258;28;20473;-64
2023/10/13 01:18:47;;;;;;;8.50;4.00;;;18.60;6.50;;;;;;4969077;28;20465;-64
2023/10/13 01:21:19;;;;;;;10.60;4.43;;;18.50;6.60;;;;;;4968406;28;20470;-64
2023/10/13 01:23:47;;;;;;;8.57;4.47;;;18.50;6.60;;;;;;4971225;28;20461;-63
2023/10/13 01:26:23;;;;;;;8.23;4.10;;;18.50;6.70;;;;;;4968837;28;20475;-64
2023/10/13 01:28:50;;;;;;;11.33;5.17;;;18.40;6.80;;;;;;4970447;28;20468;-64
2023/10/13 01:31:27;;;;;;;9.77;4.70;;;18.40;6.90;;;;;;4961650;28;20914;-64
2023/10/13 01:33:54;;;;;;;9.37;4.30;;;18.30;7.20;;;;;;4961545;28;20497;-64
2023/10/13 01:36:22;;;;;;;11.50;4.80;;;18.30;7.30;;;;;;4950726;28;20463;-64
2023/10/13 01:38:49;;;;;;;7.60;4.30;;;18.20;7.40;;;;;;4951662;28;20458;-64
2023/10/13 01:41:17;;;;;;;10.20;4.67;;;18.20;7.60;;;;;;4951296;28;20481;-64
2023/10/13 01:43:42;;;;;;;10.67;4.70;;;18.10;7.70;;;;;;4946974;28;20475;-64
2023/10/13 01:46:13;;;;;;;11.90;5.10;;;18.10;7.80;;;;;;4945664;28;20932;-64
2023/10/13 01:48:40;;;;;;;11.40;4.90;;;18.10;8.00;;;;;;4943089;28;20218;-64
2023/10/13 01:51:09;;;;;;;7.83;4.37;;;18.10;7.90;;;;;;4949353;28;20461;-64
2023/10/13 01:53:36;;;;;;;12.87;4.40;;;18.00;8.10;;;;;;4949036;28;20462;-64
2023/10/13 01:56:10;;;;;;;10.23;4.43;;;18.00;8.20;;;;;;4943893;28;20485;-64
2023/10/13 01:58:36;;;;;;;7.80;3.80;;;17.90;8.40;;;;;;4951650;28;20995;-64
2023/10/13 02:01:03;;;;;;;16.97;5.07;;;17.90;8.50;;;;;;4954652;28;20477;-64
2023/10/13 02:03:29;;;;;;;8.17;4.73;;;17.80;8.40;;;;;;4968291;28;20473;-63
2023/10/13 02:06:04;;;;;;;8.30;4.60;;;17.80;8.60;;;;;;4962112;28;20481;-63
2023/10/13 02:08:30;;;;;;;7.70;4.60;;;17.70;8.80;;;;;;4968157;28;20543;-64
2023/10/13 02:10:58;;;;;;;9.60;4.47;;;17.70;8.80;;;;;;4969139;28;20807;-63
2023/10/13 02:13:26;;;;;;;10.10;5.03;;;17.70;8.90;;;;;;4967788;28;20502;-63
2023/10/13 02:15:57;;;;;;;10.93;5.13;;;17.70;9.00;;;;;;4965875;28;20489;-64
2023/10/13 02:18:26;;;;;;;9.77;4.33;;;17.60;9.10;;;;;;4966239;28;20457;-64
2023/10/13 02:20:55;;;;;;;9.37;5.30;;;17.60;9.20;;;;;;4971063;28;20457;-64
2023/10/13 02:23:21;;;;;;;9.63;4.40;;;17.50;9.30;;;;;;4968302;28;20516;-64
2023/10/13 02:25:52;;;;;;;9.87;4.97;;;17.50;9.50;;;;;;4960135;28;20501;-64
2023/10/13 02:28:21;;;;;;;8.53;4.60;;;17.40;9.60;;;;;;4967047;28;20532;-64
2023/10/13 02:30:50;;;;;;;10.67;4.57;;;17.40;9.70;;;;;;4968025;28;20493;-64
2023/10/13 02:33:21;;;;;;;9.60;5.00;;;17.30;9.80;;;;;;4965218;28;20488;-63
2023/10/13 02:35:53;;;;;;;10.70;4.80;;;17.30;9.90;;;;;;4963817;28;20855;-63
2023/10/13 02:38:28;;;;;;;10.03;4.73;;;17.20;10.00;;;;;;4965749;28;20466;-64
2023/10/13 02:40:56;;;;;;;9.57;4.37;;;17.20;10.10;;;;;;4970434;28;20997;-63
2023/10/13 02:43:22;;;;;;;13.17;5.47;;;17.10;10.30;;;;;;4961197;28;20470;-63
2023/10/13 02:45:59;;;;;;;8.53;4.63;;;17.10;10.30;;;;;;4965946;28;20485;-63
2023/10/13 02:48:26;;;;;;;9.83;4.37;;;17.10;10.60;;;;;;4966163;28;20548;-64
2023/10/13 02:50:57;;;;;;;8.00;4.70;;;17.00;10.50;;;;;;4964183;28;20573;-64
2023/10/13 02:53:22;;;;;;;8.40;4.90;;;16.90;10.70;;;;;;4966395;28;20480;-63
2023/10/13 02:55:53;;;;;;;12.70;4.63;;;16.90;10.70;;;;;;4963759;28;20482;-64
2023/10/13 02:58:20;;;;;;;10.10;4.57;;;16.90;10.90;;;;;;4968052;28;20205;-64
2023/10/13 03:00:47;;;;;;;14.73;5.40;;;16.80;10.90;;;;;;4969082;28;20458;-64
2023/10/13 03:03:14;;;;;;;9.47;4.27;;;16.80;10.90;;;;;;4961966;28;20477;-64
2023/10/13 03:05:42;;;;;;;10.67;4.97;;;16.80;11.00;;;;;;4965261;28;20493;-64
2023/10/13 03:08:10;;;;;;;11.77;4.23;;;16.80;10.90;;;;;;4964947;28;20485;-63
2023/10/13 03:10:45;;;;;;;8.67;4.10;;;16.70;11.10;;;;;;4968632;28;20473;-63
2023/10/13 03:13:11;;;;;;;10.57;4.93;;;16.70;10.90;;;;;;4963677;28;21031;-66
2023/10/13 03:15:37;;;;;;;11.23;4.20;;;16.70;10.70;;;;;;4967677;28;20481;-64
2023/10/13 03:18:04;;;;;;;11.87;5.70;;;16.70;10.60;;;;;;4966696;28;20203;-64
2023/10/13 03:20:32;;;;;;;10.03;4.40;;;16.70;10.50;;;;;;4969125;28;20463;-63
2023/10/13 03:22:58;;;;;;;9.40;3.90;;;16.70;10.50;;;;;;4964178;28;20461;-63
2023/10/13 03:25:29;;;;;;;9.67;4.33;;;16.70;10.50;;;;;;4967405;28;20536;-63
2023/10/13 03:28:01;;;;;;;7.33;3.67;;;16.70;10.30;;;;;;4966465;28;20222;-63
2023/10/13 03:30:34;;;;;;;8.20;3.80;;;16.60;10.00;;;;;;4964781;28;20556;-63
2023/10/13 03:33:06;;;;;;;10.13;4.40;;;16.60;9.90;;;;;;4965605;28;20900;-63
2023/10/13 03:35:39;;;;;;;10.70;3.73;;;16.70;9.90;;;;;;4964236;28;20504;-63
2023/10/13 03:38:14;;;;;;;13.57;4.83;;;16.60;9.80;;;;;;4967505;28;20989;-63
2023/10/13 03:40:41;;;;;;;11.53;4.73;;;16.60;9.80;;;;;;4966164;28;20500;-63
2023/10/13 03:43:09;;;;;;;9.50;3.80;;;16.60;9.80;;;;;;4968973;28;21017;-63
2023/10/13 03:45:39;;;;;;;10.90;4.70;;;16.60;9.80;;;;;;4962384;28;20508;-63
2023/10/13 03:48:09;;;;;;;8.63;4.13;;;16.60;10.00;;;;;;4964300;28;20575;-63
2023/10/13 03:50:46;;;;;;;13.00;4.63;;;16.50;10.00;;;;;;4962546;28;21045;-63
2023/10/13 03:53:13;;;;;;;12.60;5.23;;;16.50;9.80;;;;;;4967772;28;20503;-63
2023/10/13 03:55:40;;;;;;;13.80;4.70;;;16.50;10.00;;;;;;4966527;28;20493;-63
2023/10/13 03:58:06;;;;;;;8.70;4.50;;;16.50;10.00;;;;;;4962813;28;20954;-63
2023/10/13 04:00:35;;;;;;;9.80;3.83;;;16.40;9.90;;;;;;4965878;28;20473;-63
2023/10/13 04:03:09;;;;;;;17.03;4.70;;;16.50;9.80;;;;;;4962342;28;20898;-64
2023/10/13 04:05:44;;;;;;;8.07;4.50;;;16.50;9.80;;;;;;4960181;28;20901;-64
2023/10/13 04:16:35;;;;;;;10.90;4.70;;;16.40;9.80;;;;;;4969384;28;20508;-64
2023/10/13 04:19:19;;;;;;;8.50;3.77;;;16.40;9.80;;;;;;4966750;28;20465;-64
2023/10/13 04:21:57;;;;;;;9.57;3.90;;;16.40;9.80;;;;;;4968816;28;20466;-64
2023/10/13 04:24:39;;;;;;;8.30;4.20;;;16.40;9.90;;;;;;4968018;28;20501;-64
2023/10/13 04:29:57;;;;;;;10.43;3.97;;;16.40;10.00;;;;;;4969231;28;20512;-64
2023/10/13 04:32:28;;;;;;;11.27;4.50;;;16.50;10.00;;;;;;4965461;28;20489;-66
2023/10/13 04:34:59;;;;;;;11.20;3.87;;;16.50;10.00;;;;;;4969683;28;20568;-67
2023/10/13 04:37:30;;;;;;;13.20;4.40;;;16.50;10.00;;;;;;4969007;28;20547;-67
2023/10/13 04:39:59;;;;;;;11.03;4.73;;;16.50;10.10;;;;;;4970574;28;20493;-67
2023/10/13 04:42:49;;;;;;;9.13;4.63;;;16.40;10.00;;;;;;4970744;28;20554;-66
2023/10/13 04:45:38;;;;;;;9.10;4.93;;;16.40;10.00;;;;;;4983974;28;20489;-66
2023/10/13 04:48:17;;;;;;;11.23;4.73;;;16.30;10.20;;;;;;4966451;28;20470;-66
2023/10/13 04:50:45;;;;;;;11.67;5.60;;;16.30;10.30;;;;;;4969062;28;20477;-66
2023/10/13 04:53:33;;;;;;;10.43;4.20;;;16.30;10.40;;;;;;4969876;28;20473;-66
2023/10/13 04:56:50;;;;;;;8.30;4.27;;;16.20;10.40;;;;;;4970044;28;21025;-66
2023/10/13 05:04:38;;;;;;;10.03;4.40;;;16.10;10.60;;;;;;4951523;28;20850;-66
2023/10/13 05:48:41;;;;;;;11.23;4.70;;;15.60;10.80;;;;;;4966302;28;20489;-66
2023/10/13 06:29:54;;;;;;;12.37;4.67;;;18.20;6.00;;;;;;4984147;28;20459;-65
2023/10/13 06:32:25;;;;;;;7.63;3.43;;;18.70;4.90;;;;;;4984998;28;20531;-65
2023/10/13 06:34:57;;;;;;;18.03;5.10;;;19.00;4.10;;;;;;4987993;28;20505;-65
2023/10/13 06:37:25;;;;;;;14.60;4.37;;;19.10;3.60;;;;;;4985819;28;20457;-65
2023/10/13 06:39:56;;;;;;;9.17;4.80;;;19.20;3.30;;;;;;4983938;28;20465;-65
2023/10/13 06:42:26;;;;;;;9.87;3.80;;;19.30;3.20;;;;;;4982086;28;20551;-65
2023/10/13 06:44:54;;;;;;;9.20;3.83;;;19.20;3.00;;;;;;4984835;28;20491;-65
2023/10/13 06:47:22;;;;;;;14.90;4.07;;;19.30;2.80;;;;;;4981560;28;20543;-65
2023/10/13 06:49:51;;;;;;;10.80;4.93;;;19.60;2.40;;;;;;4985916;28;20480;-65
2023/10/13 06:52:18;;;;;;;13.00;4.60;;;19.80;2.30;;;;;;4988991;28;20479;-65
2023/10/13 06:54:44;;;;;;;10.33;4.43;;;20.20;1.90;;;;;;4985804;28;20489;-65
2023/10/13 06:57:14;;;;;;;9.00;3.90;;;20.30;1.50;;;;;;4984874;28;21012;-65
2023/10/13 06:59:41;;;;;;;7.93;3.83;;;20.40;1.10;;;;;;4982106;28;20480;-65
2023/10/13 07:02:09;;;;;;;9.70;4.23;;;20.60;1.00;;;;;;4984272;28;21016;-65
2023/10/13 07:04:39;;;;;;;10.23;4.50;;;20.90;1.00;;;;;;4981879;28;20493;-65
2023/10/13 07:07:10;;;;;;;11.03;4.70;;;21.30;1.00;;;;;;4987104;28;20464;-65
2023/10/13 07:09:49;;;;;;;8.40;3.93;;;21.60;1.00;;;;;;4986841;28;21076;-65
2023/10/13 07:12:17;;;;;;;9.30;3.73;;;22.00;1.00;;;;;;4985999;28;20473;-65
2023/10/13 07:14:52;;;;;;;6.70;3.10;;;22.70;1.00;;;;;;4985384;28;20560;-65
2023/10/13 07:17:23;;;;;;;9.57;4.33;;;23.40;1.00;;;;;;4986286;28;20468;-66
2023/10/13 07:19:54;;;;;;;10.13;4.40;;;23.90;1.00;;;;;;4986286;28;20471;-65
2023/10/13 07:22:21;;;;;;;10.93;5.07;;;24.10;1.00;;;;;;4978989;28;20568;-65
2023/10/13 07:24:49;;;;;;;8.93;3.57;;;24.30;1.00;;;;;;4982063;28;20599;-65
2023/10/13 07:27:22;;;;;;;10.23;4.30;;;24.60;1.00;;;;;;4985476;28;20961;-65
2023/10/13 07:29:55;;;;;;;8.60;3.77;;;25.00;1.00;;;;;;4982683;28;20544;-65
2023/10/13 07:32:25;;;;;;;8.13;3.97;;;25.80;1.00;;;;;;4980925;28;20509;-65
2023/10/13 07:34:57;;;;;;;12.53;4.10;;;26.80;1.00;;;;;;4985803;28;20484;-65
2023/10/13 07:37:27;;;;;;;9.27;3.80;;;27.80;1.00;;;;;;4982893;28;20504;-65
2023/10/13 07:39:57;;;;;;;7.03;3.30;;;28.80;1.00;;;;;;4984476;28;20514;-65
2023/10/13 07:42:30;;;;;;;9.80;3.87;;;29.60;1.00;;;;;;4988648;28;20456;-66
2023/10/13 07:44:58;;;;;;;12.63;4.67;;;30.30;1.00;;;;;;4984248;28;20483;-66
2023/10/13 07:47:27;;;;;;;11.73;4.77;;;31.20;1.00;;;;;;4990374;28;20475;-66
2023/10/13 07:49:56;;;;;;;8.40;3.60;;;32.10;1.00;;;;;;4987976;28;20500;-66
2023/10/13 07:52:35;;;;;;;8.50;4.30;;;33.00;1.00;;;;;;4985866;28;20981;-66
2023/10/13 07:55:11;;;;;;;13.67;4.80;;;33.80;1.00;;;;;;4984009;28;20520;-65
2023/10/13 07:57:52;;;;;;;10.27;3.80;;;34.10;1.00;;;;;;4989594;28;20471;-64
2023/10/13 08:00:28;;;;;;;10.70;3.83;;;32.90;1.00;;;;;;4987379;28;20463;-66
2023/10/13 08:03:08;;;;;;;7.57;4.07;;;33.00;1.00;;;;;;4986081;28;20467;-67
2023/10/13 08:05:55;;;;;;;7.80;3.60;;;32.10;1.00;;;;;;4986587;28;20491;-64
2023/10/13 08:08:25;;;;;;;8.93;3.80;;;32.10;1.00;;;;;;4982459;28;20486;-63
2023/10/13 08:10:55;;;;;;;9.80;4.70;;;33.10;1.00;;;;;;4986434;28;20465;-64
2023/10/13 08:13:23;;;;;;;7.03;3.60;;;34.60;1.00;;;;;;4986041;28;20457;-64
2023/10/13 08:15:52;;;;;;;8.00;3.80;;;34.70;1.00;;;;;;4989601;28;20477;-64
2023/10/13 08:18:29;;;;;;;7.80;3.57;;;34.20;1.00;;;;;;4989011;28;20526;-64
2023/10/13 08:21:03;;;;;;;7.23;4.13;;;34.00;1.00;;;;;;4986168;28;20503;-63
2023/10/13 08:23:57;;;;;;;10.87;3.87;;;33.90;1.00;;;;;;4990063;28;20460;-63
2023/10/13 08:26:32;;;;;;;9.60;4.17;;;33.90;1.00;;;;;;4984448;28;21209;-64
2023/10/13 08:29:49;;;;;;;11.83;4.37;;;34.90;1.00;;;;;;4987229;28;20491;-64
2023/10/13 08:32:03;;;;;;;9.67;4.10;;;36.20;1.00;;;;;;4983642;28;20529;-64
2023/10/13 08:34:38;;;;;;;13.17;4.37;;;37.80;1.00;;;;;;4986718;28;20488;-64
2023/10/13 08:37:19;;;;;;;11.93;4.50;;;39.20;1.00;;;;;;4982531;28;20465;-64
2023/10/13 08:42:52;;;;;;;8.97;3.93;;;41.20;1.00;;;;;;4987150;28;20449;-66
2023/10/13 08:45:53;;;;;;;7.57;3.43;;;42.20;1.00;;;;;;4987827;28;20484;-65
2023/10/13 08:48:14;;;;;;;11.13;4.30;;;42.80;1.00;;;;;;4985169;28;20488;-64
2023/10/13 08:50:52;;;;;;;7.60;3.23;;;43.40;1.00;;;;;;4987212;28;20469;-64
2023/10/13 08:53:31;;;;;;;8.17;4.17;;;43.60;1.00;;;;;;4985134;28;20566;-65
2023/10/13 08:56:05;;;;;;;7.67;4.07;;;43.80;1.00;;;;;;4980888;28;21016;-64
2023/10/13 09:04:20;;;;;;;11.10;4.00;;;44.40;1.00;;;;;;4985614;28;20990;-65
2023/10/13 09:06:49;;;;;;;9.13;3.40;;;44.80;1.00;;;;;;4984610;28;20473;-66
2023/10/13 09:09:34;;;;;;;7.60;3.23;;;45.00;1.00;;;;;;4982106;28;20499;-65
2023/10/13 09:12:07;;;;;;;9.13;3.70;;;45.30;1.00;;;;;;4984539;28;20574;-65
2023/10/13 09:14:37;;;;;;;8.03;3.50;;;45.50;1.00;;;;;;4983340;28;20521;-65
2023/10/13 09:17:08;;;;;;;8.67;3.90;;;45.90;1.00;;;;;;4984253;28;20980;-65
2023/10/13 09:19:48;;;;;;;8.23;2.90;;;46.20;1.00;;;;;;4982127;28;20492;-65
2023/10/13 09:22:26;;;;;;;6.03;2.97;;;46.60;1.00;;;;;;4987158;28;20484;-65
2023/10/13 09:24:58;;;;;;;6.37;3.73;;;46.90;1.00;;;;;;4984539;28;20492;-65
2023/10/13 09:27:26;;;;;;;18.17;4.07;;;47.10;1.00;;;;;;4986055;28;20524;-66
2023/10/13 09:29:57;;;;;;;9.40;3.57;;;47.30;1.00;;;;;;4985950;28;20480;-66
2023/10/13 09:32:23;;;;;;;7.20;3.33;;;47.40;1.00;;;;;;4979920;28;20488;-67
2023/10/13 09:34:50;;;;;;;6.77;3.43;;;47.40;1.00;;;;;;4981595;28;20489;-66
2023/10/13 09:37:20;;;;;;;13.80;3.53;;;47.60;1.00;;;;;;4984007;28;20733;-66
2023/10/13 09:39:52;;;;;;;7.70;2.80;;;47.70;1.00;;;;;;4984769;28;20773;-65
2023/10/13 09:42:23;;;;;;;7.20;3.30;;;47.90;1.00;;;;;;4979468;28;20849;-66
2023/10/13 09:44:55;;;;;;;6.70;2.70;;;47.70;1.00;;;;;;4980213;28;20488;-66
2023/10/13 09:47:29;;;;;;;18.13;4.37;;;47.80;1.00;;;;;;4988411;28;20475;-66
2023/10/13 09:50:13;;;;;;;8.27;3.10;;;48.10;1.00;;;;;;4980450;28;20591;-68
2023/10/13 09:52:39;;;;;;;8.23;2.80;;;48.10;1.00;;;;;;4988276;28;20532;-68
2023/10/13 09:55:18;;;;;;;8.87;2.77;;;48.20;1.00;;;;;;4986784;28;20571;-67
2023/10/13 09:57:57;;;;;;;7.83;2.40;;;48.20;1.00;;;;;;4982184;28;20493;-67
2023/10/13 10:00:46;;;;;;;10.20;3.63;;;48.00;1.00;;;;;;4983753;28;20465;-67
2023/10/13 10:03:19;;;;;;;7.80;3.03;;;47.50;1.00;;;;;;4986120;28;20464;-66
2023/10/13 10:06:14;;;;;;;10.03;2.73;;;46.80;1.00;;;;;;4987512;28;21132;-67
2023/10/13 10:08:48;;;;;;;30.73;5.23;;;45.60;1.00;;;;;;4982205;28;20492;-66
2023/10/13 10:11:45;;;;;;;23.27;3.77;;;45.10;1.00;;;;;;4985974;28;20456;-67
2023/10/13 10:14:17;;;;;;;11.83;3.90;;;45.00;1.00;;;;;;4985882;28;20503;-68
2023/10/13 10:16:59;;;;;;;8.57;3.00;;;45.10;1.00;;;;;;4988767;28;20531;-65
2023/10/13 10:19:26;;;;;;;7.50;2.90;;;44.80;1.00;;;;;;4987597;28;20465;-65
2023/10/13 10:22:05;;;;;;;6.63;2.80;;;44.20;1.00;;;;;;4985890;28;20558;-65
2023/10/13 10:24:33;;;;;;;7.53;2.73;;;43.90;1.00;;;;;;4981888;28;20480;-67
2023/10/13 10:27:00;;;;;;;11.97;2.77;;;43.50;1.00;;;;;;4981387;28;20464;-65
2023/10/13 10:29:32;;;;;;;7.27;3.30;;;43.00;1.00;;;;;;4986663;28;20480;-65
2023/10/13 10:31:59;;;;;;;8.47;2.60;;;42.70;1.00;;;;;;4983361;28;20512;-64
2023/10/13 10:34:32;;;;;;;8.33;2.77;;;42.40;1.00;;;;;;4985264;28;20488;-65
2023/10/13 10:36:59;;;;;;;17.33;3.30;;;42.00;1.00;;;;;;4985842;28;20523;-65
2023/10/13 10:39:44;;;;;;;7.93;3.07;;;41.60;1.00;;;;;;4985315;28;20493;-65
2023/10/13 10:42:23;;;;;;;7.80;2.93;;;41.10;1.00;;;;;;4984775;28;20472;-65
2023/10/13 10:44:57;;;;;;;10.03;3.00;;;40.00;1.00;;;;;;4987095;28;20484;-64
2023/10/13 10:47:32;;;;;;;7.03;3.00;;;39.50;1.00;;;;;;4989927;28;20452;-65
2023/10/13 10:50:00;;;;;;;10.00;3.27;;;39.20;1.00;;;;;;4986526;28;20484;-65
2023/10/13 10:52:36;;;;;;;14.40;3.13;;;38.90;1.00;;;;;;4985068;28;21245;-64
2023/10/13 10:55:06;;;;;;;5.50;2.87;;;38.50;1.00;;;;;;4985365;28;20583;-63
2023/10/13 10:57:37;;;;;;;9.67;3.30;;;38.20;1.00;;;;;;4987252;28;20930;-63
2023/10/13 11:00:14;;;;;;;5.80;2.40;;;37.90;1.00;;;;;;4982879;28;20790;-65
2023/10/13 11:02:41;;;;;;;11.43;3.13;;;37.40;1.00;;;;;;4979783;28;20485;-66
2023/10/13 11:05:09;;;;;;;10.60;3.17;;;36.90;1.00;;;;;;4981089;28;20517;-65
2023/10/13 11:07:36;;;;;;;9.47;3.20;;;36.50;1.00;;;;;;4982272;28;20461;-66
2023/10/13 11:10:12;;;;;;;7.77;2.90;;;36.10;1.00;;;;;;4987601;28;20484;-63
2023/10/13 11:12:39;;;;;;;15.80;3.70;;;35.90;1.00;;;;;;4982404;28;20479;-65
2023/10/13 11:15:14;;;;;;;8.20;2.90;;;35.70;1.00;;;;;;4983751;28;20528;-65
2023/10/13 11:17:48;;;;;;;8.60;3.10;;;35.60;1.00;;;;;;4982777;28;20470;-65
2023/10/13 11:20:25;;;;;;;11.77;2.43;;;35.50;1.00;;;;;;4980050;28;21298;-67
2023/10/13 11:22:52;;;;;;;24.73;4.03;;;35.10;1.00;;;;;;4982817;28;20523;-69
2023/10/13 11:25:29;;;;;;;10.30;3.10;;;34.70;1.00;;;;;;4980178;28;20483;-67
2023/10/13 11:27:57;;;;;;;7.90;2.23;;;34.40;1.00;;;;;;4984610;28;20465;-67
2023/10/13 11:30:30;;;;;;;8.63;3.00;;;34.10;1.00;;;;;;4980276;28;20480;-67
2023/10/13 11:32:58;;;;;;;7.90;2.70;;;33.80;1.00;;;;;;4978346;28;20978;-68
2023/10/13 11:35:28;;;;;;;8.83;3.57;;;33.70;1.00;;;;;;4982348;28;20489;-66
2023/10/13 11:38:03;;;;;;;8.30;3.17;;;33.60;1.00;;;;;;4986059;28;20984;-66
2023/10/13 11:40:44;;;;;;;6.97;3.43;;;33.60;1.00;;;;;;4983615;28;20463;-66
2023/10/13 11:43:13;;;;;;;9.10;3.37;;;33.70;1.00;;;;;;4981007;28;20464;-66
2023/10/13 11:45:55;;;;;;;10.20;2.70;;;34.00;1.00;;;;;;4980280;28;20579;-66
2023/10/13 11:48:34;;;;;;;10.80;2.90;;;34.20;1.00;;;;;;4985835;28;20464;-67
2023/10/13 11:51:05;;;;;;;8.10;2.93;;;34.40;1.00;;;;;;4984328;28;20463;-67
2023/10/13 11:53:32;;;;;;;6.57;2.60;;;34.40;1.00;;;;;;4984350;28;20505;-66
2023/10/13 11:55:59;;;;;;;6.17;2.17;;;34.40;1.00;;;;;;4975933;28;21021;-66
2023/10/13 11:58:26;;;;;;;14.67;3.30;;;34.50;1.00;;;;;;4984538;28;20480;-66
2023/10/13 12:01:19;;;;;;;7.93;2.67;;;34.60;1.00;;;;;;4983136;28;20515;-65
2023/10/13 12:06:44;;;;;;;17.77;3.77;;;34.80;1.00;;;;;;4991139;23;20959;-67
2023/10/13 12:09:19;;;;;;;11.77;3.10;;;34.80;1.00;;;;;;4979314;28;20476;-66
2023/10/13 12:11:48;;;;;;;8.40;3.50;;;34.60;1.00;;;;;;4979462;28;20812;-67
2023/10/13 12:14:19;;;;;;;7.90;2.97;;;34.60;1.00;;;;;;4982574;28;20495;-66
2023/10/13 12:16:50;;;;;;;10.83;3.10;;;34.50;1.00;;;;;;4984928;28;20456;-66
2023/10/13 12:19:17;;;;;;;7.97;2.57;;;34.40;1.00;;;;;;4984793;28;20491;-67
2023/10/13 12:21:44;;;;;;;6.33;2.83;;;34.30;1.00;;;;;;4985328;28;20473;-67
2023/10/13 12:24:22;;;;;;;6.77;3.00;;;34.10;1.00;;;;;;4983419;28;20499;-67
2023/10/13 12:26:55;;;;;;;6.70;2.93;;;33.80;1.00;;;;;;4986430;28;20457;-67
2023/10/13 12:29:27;;;;;;;11.90;3.57;;;33.40;1.00;;;;;;4982625;28;20489;-67
2023/10/13 12:32:07;;;;;;;8.13;2.97;;;32.90;1.00;;;;;;5001042;28;20495;-67
2023/10/13 12:34:57;;;;;;;10.30;3.20;;;32.50;1.00;;;;;;5007975;28;20897;-67
2023/10/13 12:51:19;;;;;;;8.50;3.00;;;30.60;1.00;;;;;;5010876;28;20490;-67
2023/10/13 12:53:47;;;;;;;13.53;3.10;;;30.40;1.00;;;;;;5006922;28;20455;-66
2023/10/13 12:56:13;;;;;;;10.10;3.47;;;30.20;1.00;;;;;;5006594;28;20464;-67
2023/10/13 12:58:40;;;;;;;9.33;3.13;;;30.00;1.00;;;;;;5004363;28;20467;-67
2023/10/13 13:01:07;;;;;;;6.87;2.27;;;29.80;1.00;;;;;;5009219;28;21070;-66
2023/10/13 13:03:35;;;;;;;15.53;3.30;;;29.60;1.00;;;;;;5012281;28;20550;-66
2023/10/13 13:06:07;;;;;;;9.30;3.10;;;29.40;1.00;;;;;;5005557;28;20464;-66
2023/10/13 13:08:35;;;;;;;6.67;2.60;;;29.30;1.00;;;;;;5007841;28;20470;-67
2023/10/13 13:11:02;;;;;;;5.77;2.80;;;29.10;1.00;;;;;;5003076;28;20482;-67
2023/10/13 13:13:29;;;;;;;8.10;3.10;;;28.90;1.00;;;;;;5009275;28;21010;-67
2023/10/13 13:15:56;;;;;;;8.57;2.60;;;28.80;1.00;;;;;;5008050;28;20483;-67
2023/10/13 13:18:23;;;;;;;10.43;2.80;;;28.60;1.00;;;;;;5008859;28;20558;-67
2023/10/13 13:20:54;;;;;;;8.43;3.17;;;28.60;1.00;;;;;;5010055;28;20463;-67
2023/10/13 13:23:21;;;;;;;7.20;3.27;;;28.50;1.00;;;;;;5009577;28;20521;-67
2023/10/13 13:25:48;;;;;;;9.30;3.00;;;28.40;1.00;;;;;;5003848;28;20483;-66
2023/10/13 13:28:16;;;;;;;7.53;3.10;;;28.30;1.00;;;;;;5005745;28;20460;-69
2023/10/13 13:30:42;;;;;;;8.40;3.20;;;28.20;1.00;;;;;;4999836;28;20495;-67
2023/10/13 13:33:12;;;;;;;9.67;3.10;;;28.20;1.00;;;;;;5001892;28;20468;-63
2023/10/13 13:35:39;;;;;;;8.87;2.63;;;28.00;1.00;;;;;;5000479;28;20492;-63
2023/10/13 13:38:16;;;;;;;6.87;2.30;;;28.00;1.00;;;;;;5007734;28;20474;-63
2023/10/13 13:40:48;;;;;;;7.40;2.97;;;27.80;1.00;;;;;;5010626;28;20470;-63
2023/10/13 13:43:31;;;;;;;5.47;2.83;;;27.80;1.00;;;;;;5008512;28;20492;-63
2023/10/13 13:46:00;;;;;;;7.87;2.97;;;27.70;1.00;;;;;;5006667;28;21000;-63
2023/10/13 13:48:28;;;;;;;10.03;3.30;;;27.60;1.00;;;;;;4999784;28;20972;-63
2023/10/13 13:50:55;;;;;;;5.20;2.63;;;27.60;1.00;;;;;;5005882;28;20542;-63
2023/10/13 13:53:31;;;;;;;7.23;2.77;;;27.50;1.00;;;;;;5007487;28;20460;-63
2023/10/13 13:56:00;;;;;;;8.93;2.77;;;27.50;1.00;;;;;;5007967;28;20491;-63
2023/10/13 13:58:27;;;;;;;8.27;2.90;;;27.40;1.00;;;;;;5009223;28;20475;-63
2023/10/13 14:01:00;;;;;;;12.37;2.93;;;27.30;1.00;;;;;;4999761;28;20487;-64
2023/10/13 14:03:31;;;;;;;7.50;2.90;;;27.20;1.00;;;;;;4999602;28;20468;-64
2023/10/13 14:05:59;;;;;;;5.20;2.60;;;27.20;1.00;;;;;;5012498;28;20915;-64
2023/10/13 14:08:28;;;;;;;7.27;2.87;;;27.20;1.00;;;;;;5003671;28;20496;-62
2023/10/13 14:16:22;;;;;;;9.17;3.33;;;27.10;1.00;;;;;;5003607;28;20837;-64
2023/10/13 14:18:51;;;;;;;8.87;2.77;;;27.00;1.00;;;;;;5006756;28;20464;-64
2023/10/13 14:21:18;;;;;;;10.67;3.17;;;27.00;1.00;;;;;;5009167;28;20940;-64
2023/10/13 14:23:48;;;;;;;10.70;3.70;;;26.90;1.00;;;;;;5005025;28;20547;-65
2023/10/13 14:26:20;;;;;;;10.63;2.93;;;26.80;1.00;;;;;;4999090;28;20470;-65
2023/10/13 14:31:36;;;;;;;7.77;3.03;;;26.80;1.00;;;;;;4998154;28;20476;-65
2023/10/13 14:34:03;;;;;;;8.57;3.17;;;26.70;1.00;;;;;;5002815;28;20488;-65
2023/10/13 14:36:34;;;;;;;6.67;2.73;;;26.70;1.00;;;;;;5002889;28;20482;-65
2023/10/13 14:39:03;;;;;;;8.27;3.67;;;26.70;1.00;;;;;;5006954;28;20511;-67
2023/10/13 14:41:30;;;;;;;10.10;3.47;;;26.70;1.00;;;;;;5004802;28;20484;-66
2023/10/13 14:44:04;;;;;;;8.73;3.13;;;26.60;1.00;;;;;;5000319;28;20488;-64
2023/10/13 14:46:35;;;;;;;11.63;3.10;;;26.60;1.00;;;;;;5000426;28;20498;-64
2023/10/13 14:49:02;;;;;;;6.30;2.93;;;26.60;1.00;;;;;;5006477;28;20495;-64
2023/10/13 14:51:29;;;;;;;8.90;2.70;;;26.50;1.00;;;;;;5011819;28;20488;-64
2023/10/13 14:53:58;;;;;;;10.87;4.37;;;26.50;1.00;;;;;;5002513;28;20475;-64
2023/10/13 14:56:28;;;;;;;6.70;2.80;;;26.40;1.00;;;;;;5011109;28;20542;-63
2023/10/13 14:58:55;;;;;;;8.50;3.00;;;26.40;1.00;;;;;;5008074;28;20467;-64
2023/10/13 15:01:24;;;;;;;10.10;3.17;;;26.40;1.00;;;;;;5009946;28;20487;-63
2023/10/13 15:03:54;;;;;;;11.13;3.60;;;26.30;1.00;;;;;;5005233;28;20591;-64
2023/10/13 15:06:24;;;;;;;7.37;3.33;;;26.30;1.00;;;;;;4999790;28;20556;-64
2023/10/13 15:08:54;;;;;;;7.60;3.13;;;26.30;1.00;;;;;;5004840;28;20460;-64
2023/10/13 15:11:26;;;;;;;7.60;3.50;;;26.30;1.00;;;;;;5002290;28;20487;-64
2023/10/13 15:13:55;;;;;;;10.27;3.13;;;26.20;1.00;;;;;;5001426;28;20468;-64
2023/10/13 15:16:24;;;;;;;13.60;3.83;;;26.10;1.00;;;;;;5003343;28;20530;-63
2023/10/13 15:18:52;;;;;;;12.43;3.20;;;26.00;1.00;;;;;;5008641;28;20463;-63
2023/10/13 15:21:26;;;;;;;9.37;2.90;;;26.00;1.00;;;;;;5008611;28;20943;-63
2023/10/13 15:23:53;;;;;;;9.17;3.10;;;25.90;1.00;;;;;;5006028;28;20538;-64
2023/10/13 15:26:21;;;;;;;8.33;3.60;;;25.90;1.00;;;;;;5000513;28;20471;-63